Main page
METAR-TAF:

METAR-TAF

Airports :

Pärnu Airport

Pärnu, Estonia

latitude: 58-25-09N, longitude: 024-28-22E, elevation: 14 m

Current weather observation

The report was made 10 hours and 38 minutes ago, at 13:50 UTC
Wind 3 kt from the East, varying between Northeast and South/Southeast
Temperature -10°C
Humidity 92%
Pressure 1015 hPa
Visibility: 8000 m
Few clouds at a height of 200 ft
Overcast at a height of 700 ft

METAR: EEPU 221350Z 10003KT 050V160 8000 FEW002 OVC007 M10/M11 Q1015

Time: 02:28 (00:28 UTC)


TAF: missing

Weather observations and forecasts of more than 4000 airports (METAR and TAF reports).

The available stations are represented by yellow and red dots on the map.

Hover mouse over dot to see the name of the station.

Then click to see weather observations and forecasts.

To change the map : click on the green buttons with a black cross to zoom in, on the green button with a dash to zoom out, or on the green arrows for adjacent maps.


METAR-TAF: